sensor_id;sensor_type;location;lat;lon;timestamp;P1;durP1;ratioP1;P2;durP2;ratioP2
14688;SDS011;7432;48.728;9.154;2023-04-25T00:00:57;4.53;;;4.23;;
14688;SDS011;7432;48.728;9.154;2023-04-25T00:03:23;5.33;;;4.10;;
14688;SDS011;7432;48.728;9.154;2023-04-25T00:05:50;5.13;;;4.57;;
14688;SDS011;7432;48.728;9.154;2023-04-25T00:08:16;5.60;;;5.10;;
14688;SDS011;7432;48.728;9.154;2023-04-25T00:10:44;4.57;;;4.17;;
14688;SDS011;7432;48.728;9.154;2023-04-25T00:13:11;4.80;;;4.40;;
14688;SDS011;7432;48.728;9.154;2023-04-25T00:15:38;4.73;;;4.43;;
14688;SDS011;7432;48.728;9.154;2023-04-25T00:18:06;4.80;;;4.40;;
14688;SDS011;7432;48.728;9.154;2023-04-25T00:20:32;4.60;;;4.20;;
14688;SDS011;7432;48.728;9.154;2023-04-25T00:22:59;6.17;;;4.30;;
14688;SDS011;7432;48.728;9.154;2023-04-25T00:25:26;4.70;;;4.30;;
14688;SDS011;7432;48.728;9.154;2023-04-25T00:27:54;4.30;;;4.00;;
14688;SDS011;7432;48.728;9.154;2023-04-25T00:30:20;4.57;;;4.27;;
14688;SDS011;7432;48.728;9.154;2023-04-25T00:32:47;4.40;;;4.10;;
14688;SDS011;7432;48.728;9.154;2023-04-25T00:35:13;4.77;;;4.37;;
14688;SDS011;7432;48.728;9.154;2023-04-25T00:37:40;4.97;;;4.47;;
14688;SDS011;7432;48.728;9.154;2023-04-25T00:40:07;4.77;;;4.03;;
14688;SDS011;7432;48.728;9.154;2023-04-25T00:42:34;4.60;;;4.30;;
14688;SDS011;7432;48.728;9.154;2023-04-25T00:45:03;4.60;;;4.30;;
14688;SDS011;7432;48.728;9.154;2023-04-25T00:47:31;4.60;;;4.20;;
14688;SDS011;7432;48.728;9.154;2023-04-25T00:49:58;4.20;;;3.90;;
14688;SDS011;7432;48.728;9.154;2023-04-25T00:52:25;4.77;;;4.47;;
14688;SDS011;7432;48.728;9.154;2023-04-25T00:54:51;4.90;;;4.43;;
14688;SDS011;7432;48.728;9.154;2023-04-25T00:57:18;4.73;;;4.40;;
14688;SDS011;7432;48.728;9.154;2023-04-25T00:59:45;4.80;;;4.40;;
14688;SDS011;7432;48.728;9.154;2023-04-25T01:02:13;4.60;;;4.30;;
14688;SDS011;7432;48.728;9.154;2023-04-25T01:04:39;4.60;;;4.30;;
14688;SDS011;7432;48.728;9.154;2023-04-25T01:07:05;4.40;;;4.00;;
14688;SDS011;7432;48.728;9.154;2023-04-25T01:09:33;5.13;;;4.73;;
14688;SDS011;7432;48.728;9.154;2023-04-25T01:12:00;5.10;;;4.70;;
14688;SDS011;7432;48.728;9.154;2023-04-25T01:14:26;5.30;;;4.80;;
14688;SDS011;7432;48.728;9.154;2023-04-25T01:16:53;5.33;;;4.83;;
14688;SDS011;7432;48.728;9.154;2023-04-25T01:19:21;4.90;;;4.60;;
14688;SDS011;7432;48.728;9.154;2023-04-25T01:21:49;4.63;;;4.33;;
14688;SDS011;7432;48.728;9.154;2023-04-25T01:24:16;4.80;;;4.27;;
14688;SDS011;7432;48.728;9.154;2023-04-25T01:26:42;5.20;;;4.77;;
14688;SDS011;7432;48.728;9.154;2023-04-25T01:29:14;5.23;;;4.90;;
14688;SDS011;7432;48.728;9.154;2023-04-25T01:31:41;4.83;;;4.53;;
14688;SDS011;7432;48.728;9.154;2023-04-25T01:34:08;5.33;;;4.50;;
14688;SDS011;7432;48.728;9.154;2023-04-25T01:36:35;4.70;;;4.40;;
14688;SDS011;7432;48.728;9.154;2023-04-25T01:39:03;4.50;;;4.20;;
14688;SDS011;7432;48.728;9.154;2023-04-25T01:41:29;5.30;;;4.80;;
14688;SDS011;7432;48.728;9.154;2023-04-25T01:43:56;5.07;;;4.67;;
14688;SDS011;7432;48.728;9.154;2023-04-25T01:46:22;5.47;;;4.90;;
14688;SDS011;7432;48.728;9.154;2023-04-25T01:48:49;4.80;;;4.40;;
14688;SDS011;7432;48.728;9.154;2023-04-25T01:51:15;5.00;;;4.57;;
14688;SDS011;7432;48.728;9.154;2023-04-25T01:53:42;5.27;;;4.67;;
14688;SDS011;7432;48.728;9.154;2023-04-25T01:56:10;5.20;;;4.67;;
14688;SDS011;7432;48.728;9.154;2023-04-25T01:58:37;5.20;;;4.70;;
14688;SDS011;7432;48.728;9.154;2023-04-25T02:01:03;6.47;;;4.33;;
14688;SDS011;7432;48.728;9.154;2023-04-25T02:03:30;4.80;;;4.40;;
14688;SDS011;7432;48.728;9.154;2023-04-25T02:05:57;5.17;;;4.77;;
14688;SDS011;7432;48.728;9.154;2023-04-25T02:08:23;4.97;;;4.47;;
14688;SDS011;7432;48.728;9.154;2023-04-25T02:10:51;4.83;;;4.47;;
14688;SDS011;7432;48.728;9.154;2023-04-25T02:13:18;5.00;;;4.60;;
14688;SDS011;7432;48.728;9.154;2023-04-25T02:15:45;4.53;;;4.23;;
14688;SDS011;7432;48.728;9.154;2023-04-25T02:18:11;4.73;;;4.33;;
14688;SDS011;7432;48.728;9.154;2023-04-25T02:20:38;4.70;;;4.40;;
14688;SDS011;7432;48.728;9.154;2023-04-25T02:23:04;4.90;;;4.50;;
14688;SDS011;7432;48.728;9.154;2023-04-25T02:25:30;4.80;;;4.40;;
14688;SDS011;7432;48.728;9.154;2023-04-25T02:27:57;5.00;;;4.60;;
14688;SDS011;7432;48.728;9.154;2023-04-25T02:30:24;5.90;;;4.40;;
14688;SDS011;7432;48.728;9.154;2023-04-25T02:32:51;4.77;;;4.37;;
14688;SDS011;7432;48.728;9.154;2023-04-25T02:35:17;4.47;;;4.07;;
14688;SDS011;7432;48.728;9.154;2023-04-25T02:37:44;4.30;;;4.10;;
14688;SDS011;7432;48.728;9.154;2023-04-25T02:40:11;4.30;;;4.00;;
14688;SDS011;7432;48.728;9.154;2023-04-25T02:42:37;4.67;;;4.37;;
14688;SDS011;7432;48.728;9.154;2023-04-25T02:45:04;5.20;;;4.70;;
14688;SDS011;7432;48.728;9.154;2023-04-25T02:47:32;4.93;;;4.40;;
14688;SDS011;7432;48.728;9.154;2023-04-25T02:49:59;4.73;;;4.27;;
14688;SDS011;7432;48.728;9.154;2023-04-25T02:52:25;5.33;;;4.83;;
14688;SDS011;7432;48.728;9.154;2023-04-25T02:54:51;5.03;;;4.73;;
14688;SDS011;7432;48.728;9.154;2023-04-25T02:57:18;5.07;;;4.67;;
14688;SDS011;7432;48.728;9.154;2023-04-25T02:59:44;5.10;;;4.70;;
14688;SDS011;7432;48.728;9.154;2023-04-25T03:02:10;4.67;;;4.30;;
14688;SDS011;7432;48.728;9.154;2023-04-25T03:04:38;5.00;;;4.60;;
14688;SDS011;7432;48.728;9.154;2023-04-25T03:07:05;5.33;;;4.90;;
14688;SDS011;7432;48.728;9.154;2023-04-25T03:09:31;5.00;;;4.60;;
14688;SDS011;7432;48.728;9.154;2023-04-25T03:11:57;6.10;;;5.50;;
14688;SDS011;7432;48.728;9.154;2023-04-25T03:14:24;6.53;;;5.93;;
14688;SDS011;7432;48.728;9.154;2023-04-25T03:16:50;6.20;;;5.70;;
14688;SDS011;7432;48.728;9.154;2023-04-25T03:19:17;5.60;;;5.10;;
14688;SDS011;7432;48.728;9.154;2023-04-25T03:21:44;7.53;;;4.83;;
14688;SDS011;7432;48.728;9.154;2023-04-25T03:24:11;5.50;;;5.10;;
14688;SDS011;7432;48.728;9.154;2023-04-25T03:26:37;5.23;;;4.83;;
14688;SDS011;7432;48.728;9.154;2023-04-25T03:29:04;5.13;;;4.83;;
14688;SDS011;7432;48.728;9.154;2023-04-25T03:31:30;5.10;;;4.70;;
14688;SDS011;7432;48.728;9.154;2023-04-25T03:33:57;5.17;;;4.87;;
14688;SDS011;7432;48.728;9.154;2023-04-25T03:36:23;5.57;;;5.00;;
14688;SDS011;7432;48.728;9.154;2023-04-25T03:38:51;5.40;;;5.00;;
14688;SDS011;7432;48.728;9.154;2023-04-25T03:41:17;5.00;;;4.63;;
14688;SDS011;7432;48.728;9.154;2023-04-25T03:43:43;4.83;;;4.53;;
14688;SDS011;7432;48.728;9.154;2023-04-25T03:46:10;5.23;;;4.83;;
14688;SDS011;7432;48.728;9.154;2023-04-25T03:48:36;5.07;;;4.77;;
14688;SDS011;7432;48.728;9.154;2023-04-25T03:51:03;5.60;;;5.10;;
14688;SDS011;7432;48.728;9.154;2023-04-25T03:53:29;5.60;;;5.20;;
14688;SDS011;7432;48.728;9.154;2023-04-25T03:55:57;5.90;;;5.40;;
14688;SDS011;7432;48.728;9.154;2023-04-25T03:58:23;4.07;;;3.83;;
14688;SDS011;7432;48.728;9.154;2023-04-25T04:00:50;5.53;;;5.03;;
14688;SDS011;7432;48.728;9.154;2023-04-25T04:03:16;5.33;;;4.93;;
14688;SDS011;7432;48.728;9.154;2023-04-25T04:05:42;6.10;;;5.57;;
14688;SDS011;7432;48.728;9.154;2023-04-25T04:08:10;6.57;;;5.30;;
14688;SDS011;7432;48.728;9.154;2023-04-25T04:10:36;5.30;;;4.90;;
14688;SDS011;7432;48.728;9.154;2023-04-25T04:13:04;5.63;;;5.13;;
14688;SDS011;7432;48.728;9.154;2023-04-25T04:15:30;6.00;;;5.50;;
14688;SDS011;7432;48.728;9.154;2023-04-25T04:17:57;6.30;;;5.70;;
14688;SDS011;7432;48.728;9.154;2023-04-25T04:20:27;6.13;;;5.57;;
14688;SDS011;7432;48.728;9.154;2023-04-25T04:22:54;5.23;;;4.83;;
14688;SDS011;7432;48.728;9.154;2023-04-25T04:25:20;5.37;;;4.97;;
14688;SDS011;7432;48.728;9.154;2023-04-25T04:27:46;6.33;;;5.73;;
14688;SDS011;7432;48.728;9.154;2023-04-25T04:30:14;6.70;;;6.10;;
14688;SDS011;7432;48.728;9.154;2023-04-25T04:32:40;6.27;;;5.77;;
14688;SDS011;7432;48.728;9.154;2023-04-25T04:35:07;5.87;;;5.40;;
14688;SDS011;7432;48.728;9.154;2023-04-25T04:37:36;5.47;;;5.00;;
14688;SDS011;7432;48.728;9.154;2023-04-25T04:40:02;13.87;;;5.50;;
14688;SDS011;7432;48.728;9.154;2023-04-25T04:42:30;6.00;;;5.60;;
14688;SDS011;7432;48.728;9.154;2023-04-25T04:44:56;5.73;;;5.33;;
14688;SDS011;7432;48.728;9.154;2023-04-25T04:47:24;6.57;;;5.97;;
14688;SDS011;7432;48.728;9.154;2023-04-25T04:49:55;5.87;;;5.20;;
14688;SDS011;7432;48.728;9.154;2023-04-25T04:52:22;6.30;;;5.80;;
14688;SDS011;7432;48.728;9.154;2023-04-25T04:54:48;6.43;;;5.83;;
14688;SDS011;7432;48.728;9.154;2023-04-25T04:57:15;6.60;;;6.10;;
14688;SDS011;7432;48.728;9.154;2023-04-25T04:59:41;6.13;;;5.63;;
14688;SDS011;7432;48.728;9.154;2023-04-25T05:02:08;6.30;;;5.90;;
14688;SDS011;7432;48.728;9.154;2023-04-25T05:04:36;5.87;;;5.47;;
14688;SDS011;7432;48.728;9.154;2023-04-25T05:07:02;6.77;;;6.07;;
14688;SDS011;7432;48.728;9.154;2023-04-25T05:09:29;6.93;;;6.33;;
14688;SDS011;7432;48.728;9.154;2023-04-25T05:11:55;5.57;;;5.17;;
14688;SDS011;7432;48.728;9.154;2023-04-25T05:14:21;5.67;;;5.27;;
14688;SDS011;7432;48.728;9.154;2023-04-25T05:16:48;5.90;;;5.40;;
14688;SDS011;7432;48.728;9.154;2023-04-25T05:19:14;5.63;;;5.23;;
14688;SDS011;7432;48.728;9.154;2023-04-25T05:21:42;6.07;;;5.57;;
14688;SDS011;7432;48.728;9.154;2023-04-25T05:24:09;6.07;;;5.47;;
14688;SDS011;7432;48.728;9.154;2023-04-25T05:26:35;6.60;;;6.00;;
14688;SDS011;7432;48.728;9.154;2023-04-25T05:29:01;6.17;;;5.67;;
14688;SDS011;7432;48.728;9.154;2023-04-25T05:31:28;7.30;;;6.47;;
14688;SDS011;7432;48.728;9.154;2023-04-25T05:33:54;6.50;;;5.80;;
14688;SDS011;7432;48.728;9.154;2023-04-25T05:36:21;6.37;;;5.87;;
14688;SDS011;7432;48.728;9.154;2023-04-25T05:38:48;6.63;;;6.13;;
14688;SDS011;7432;48.728;9.154;2023-04-25T05:41:15;6.00;;;5.50;;
14688;SDS011;7432;48.728;9.154;2023-04-25T05:43:41;5.97;;;5.47;;
14688;SDS011;7432;48.728;9.154;2023-04-25T05:46:11;6.17;;;5.77;;
14688;SDS011;7432;48.728;9.154;2023-04-25T05:48:38;6.20;;;5.70;;
14688;SDS011;7432;48.728;9.154;2023-04-25T05:51:05;5.90;;;5.50;;
14688;SDS011;7432;48.728;9.154;2023-04-25T05:53:32;6.97;;;6.37;;
14688;SDS011;7432;48.728;9.154;2023-04-25T05:55:59;6.90;;;6.50;;
14688;SDS011;7432;48.728;9.154;2023-04-25T05:58:26;7.67;;;6.97;;
14688;SDS011;7432;48.728;9.154;2023-04-25T06:00:53;6.47;;;5.90;;
14688;SDS011;7432;48.728;9.154;2023-04-25T06:03:19;7.13;;;6.53;;
14688;SDS011;7432;48.728;9.154;2023-04-25T06:05:46;7.17;;;6.67;;
14688;SDS011;7432;48.728;9.154;2023-04-25T06:08:12;6.53;;;6.03;;
14688;SDS011;7432;48.728;9.154;2023-04-25T06:10:38;9.57;;;6.70;;
14688;SDS011;7432;48.728;9.154;2023-04-25T06:13:06;7.10;;;6.70;;
14688;SDS011;7432;48.728;9.154;2023-04-25T06:15:32;7.07;;;6.57;;
14688;SDS011;7432;48.728;9.154;2023-04-25T06:17:59;7.17;;;6.50;;
14688;SDS011;7432;48.728;9.154;2023-04-25T06:20:26;7.60;;;7.10;;
14688;SDS011;7432;48.728;9.154;2023-04-25T06:22:52;8.23;;;6.80;;
14688;SDS011;7432;48.728;9.154;2023-04-25T06:25:19;6.57;;;6.07;;
14688;SDS011;7432;48.728;9.154;2023-04-25T06:27:46;6.50;;;6.00;;
14688;SDS011;7432;48.728;9.154;2023-04-25T06:30:13;6.90;;;6.40;;
14688;SDS011;7432;48.728;9.154;2023-04-25T06:32:41;7.38;;;6.78;;
14688;SDS011;7432;48.728;9.154;2023-04-25T06:35:08;6.53;;;6.13;;
14688;SDS011;7432;48.728;9.154;2023-04-25T06:37:35;6.83;;;6.37;;
14688;SDS011;7432;48.728;9.154;2023-04-25T06:40:03;6.43;;;5.90;;
14688;SDS011;7432;48.728;9.154;2023-04-25T06:42:30;7.13;;;6.70;;
14688;SDS011;7432;48.728;9.154;2023-04-25T06:44:57;6.80;;;6.13;;
14688;SDS011;7432;48.728;9.154;2023-04-25T06:47:24;7.07;;;6.47;;
14688;SDS011;7432;48.728;9.154;2023-04-25T06:49:51;7.53;;;6.93;;
14688;SDS011;7432;48.728;9.154;2023-04-25T06:52:17;6.50;;;5.90;;
14688;SDS011;7432;48.728;9.154;2023-04-25T06:54:43;6.80;;;6.23;;
14688;SDS011;7432;48.728;9.154;2023-04-25T06:57:10;6.60;;;6.10;;
14688;SDS011;7432;48.728;9.154;2023-04-25T06:59:36;6.90;;;6.40;;
14688;SDS011;7432;48.728;9.154;2023-04-25T07:02:03;6.70;;;6.10;;
14688;SDS011;7432;48.728;9.154;2023-04-25T07:04:30;7.07;;;6.57;;
14688;SDS011;7432;48.728;9.154;2023-04-25T07:06:57;6.67;;;6.20;;
14688;SDS011;7432;48.728;9.154;2023-04-25T07:09:25;6.47;;;6.07;;
14688;SDS011;7432;48.728;9.154;2023-04-25T07:11:52;5.90;;;5.50;;
14688;SDS011;7432;48.728;9.154;2023-04-25T07:14:18;6.17;;;5.67;;
14688;SDS011;7432;48.728;9.154;2023-04-25T07:16:45;6.43;;;6.00;;
14688;SDS011;7432;48.728;9.154;2023-04-25T07:19:11;7.10;;;6.57;;
14688;SDS011;7432;48.728;9.154;2023-04-25T07:21:39;6.37;;;5.97;;
14688;SDS011;7432;48.728;9.154;2023-04-25T07:24:06;6.43;;;6.03;;
14688;SDS011;7432;48.728;9.154;2023-04-25T07:26:32;7.40;;;6.80;;
14688;SDS011;7432;48.728;9.154;2023-04-25T07:28:59;6.67;;;6.17;;
14688;SDS011;7432;48.728;9.154;2023-04-25T07:31:25;6.53;;;6.03;;
14688;SDS011;7432;48.728;9.154;2023-04-25T07:33:52;7.40;;;6.90;;
14688;SDS011;7432;48.728;9.154;2023-04-25T07:36:19;6.50;;;6.00;;
14688;SDS011;7432;48.728;9.154;2023-04-25T07:38:47;7.07;;;6.47;;
14688;SDS011;7432;48.728;9.154;2023-04-25T07:41:13;6.57;;;6.07;;
14688;SDS011;7432;48.728;9.154;2023-04-25T07:43:40;6.77;;;6.17;;
14688;SDS011;7432;48.728;9.154;2023-04-25T07:46:06;6.67;;;6.20;;
14688;SDS011;7432;48.728;9.154;2023-04-25T07:48:32;6.73;;;6.23;;
14688;SDS011;7432;48.728;9.154;2023-04-25T07:50:59;7.63;;;6.93;;
14688;SDS011;7432;48.728;9.154;2023-04-25T07:53:25;7.63;;;7.13;;
14688;SDS011;7432;48.728;9.154;2023-04-25T07:55:53;8.00;;;7.40;;
14688;SDS011;7432;48.728;9.154;2023-04-25T07:58:19;7.03;;;6.50;;
14688;SDS011;7432;48.728;9.154;2023-04-25T08:00:46;7.10;;;6.40;;
14688;SDS011;7432;48.728;9.154;2023-04-25T08:03:13;7.67;;;7.00;;
14688;SDS011;7432;48.728;9.154;2023-04-25T08:05:39;6.67;;;6.17;;
14688;SDS011;7432;48.728;9.154;2023-04-25T08:08:06;7.60;;;6.80;;
14688;SDS011;7432;48.728;9.154;2023-04-25T08:10:32;6.97;;;6.13;;
14688;SDS011;7432;48.728;9.154;2023-04-25T08:13:00;7.57;;;6.47;;
14688;SDS011;7432;48.728;9.154;2023-04-25T08:15:26;7.63;;;7.00;;
14688;SDS011;7432;48.728;9.154;2023-04-25T08:17:53;6.93;;;6.33;;
14688;SDS011;7432;48.728;9.154;2023-04-25T08:20:19;6.03;;;5.63;;
14688;SDS011;7432;48.728;9.154;2023-04-25T08:22:46;7.60;;;7.00;;
14688;SDS011;7432;48.728;9.154;2023-04-25T08:25:13;7.30;;;6.70;;
14688;SDS011;7432;48.728;9.154;2023-04-25T08:27:40;7.53;;;6.90;;
14688;SDS011;7432;48.728;9.154;2023-04-25T08:30:08;7.43;;;6.93;;
14688;SDS011;7432;48.728;9.154;2023-04-25T08:32:35;7.30;;;6.60;;
14688;SDS011;7432;48.728;9.154;2023-04-25T08:35:03;7.17;;;6.60;;
14688;SDS011;7432;48.728;9.154;2023-04-25T08:37:30;7.97;;;7.37;;
14688;SDS011;7432;48.728;9.154;2023-04-25T08:39:56;7.57;;;6.97;;
14688;SDS011;7432;48.728;9.154;2023-04-25T08:42:23;9.33;;;8.43;;
14688;SDS011;7432;48.728;9.154;2023-04-25T08:44:50;8.80;;;7.97;;
14688;SDS011;7432;48.728;9.154;2023-04-25T08:47:21;9.47;;;8.63;;
14688;SDS011;7432;48.728;9.154;2023-04-25T08:49:48;9.50;;;8.70;;
14688;SDS011;7432;48.728;9.154;2023-04-25T08:52:16;9.13;;;8.43;;
14688;SDS011;7432;48.728;9.154;2023-04-25T08:54:48;8.40;;;7.60;;
14688;SDS011;7432;48.728;9.154;2023-04-25T08:57:15;8.73;;;7.83;;
14688;SDS011;7432;48.728;9.154;2023-04-25T08:59:43;8.67;;;7.97;;
14688;SDS011;7432;48.728;9.154;2023-04-25T09:02:11;9.40;;;7.97;;
14688;SDS011;7432;48.728;9.154;2023-04-25T09:04:42;8.90;;;7.97;;
14688;SDS011;7432;48.728;9.154;2023-04-25T09:07:10;8.67;;;7.87;;
14688;SDS011;7432;48.728;9.154;2023-04-25T09:09:36;7.57;;;6.80;;
14688;SDS011;7432;48.728;9.154;2023-04-25T09:12:03;8.20;;;7.50;;
14688;SDS011;7432;48.728;9.154;2023-04-25T09:14:31;8.53;;;6.97;;
14688;SDS011;7432;48.728;9.154;2023-04-25T09:17:01;7.40;;;6.70;;
14688;SDS011;7432;48.728;9.154;2023-04-25T09:19:29;7.30;;;6.60;;
14688;SDS011;7432;48.728;9.154;2023-04-25T09:21:59;7.13;;;6.53;;
14688;SDS011;7432;48.728;9.154;2023-04-25T09:24:31;6.87;;;6.33;;
14688;SDS011;7432;48.728;9.154;2023-04-25T09:27:02;8.03;;;6.93;;
14688;SDS011;7432;48.728;9.154;2023-04-25T09:29:30;7.40;;;6.80;;
14688;SDS011;7432;48.728;9.154;2023-04-25T09:32:10;7.13;;;6.63;;
14688;SDS011;7432;48.728;9.154;2023-04-25T09:34:38;5.90;;;5.50;;
14688;SDS011;7432;48.728;9.154;2023-04-25T09:37:08;5.93;;;5.43;;
14688;SDS011;7432;48.728;9.154;2023-04-25T09:39:35;5.80;;;5.40;;
14688;SDS011;7432;48.728;9.154;2023-04-25T09:42:02;6.40;;;6.00;;
14688;SDS011;7432;48.728;9.154;2023-04-25T09:44:29;6.20;;;5.73;;
14688;SDS011;7432;48.728;9.154;2023-04-25T09:46:55;5.30;;;5.00;;
14688;SDS011;7432;48.728;9.154;2023-04-25T09:49:22;6.77;;;6.17;;
14688;SDS011;7432;48.728;9.154;2023-04-25T09:51:53;5.60;;;5.20;;
14688;SDS011;7432;48.728;9.154;2023-04-25T09:54:22;6.00;;;5.60;;
14688;SDS011;7432;48.728;9.154;2023-04-25T09:56:49;5.67;;;5.27;;
14688;SDS011;7432;48.728;9.154;2023-04-25T09:59:18;6.40;;;5.90;;
14688;SDS011;7432;48.728;9.154;2023-04-25T10:01:47;6.73;;;6.17;;
14688;SDS011;7432;48.728;9.154;2023-04-25T10:04:16;6.50;;;6.00;;
14688;SDS011;7432;48.728;9.154;2023-04-25T10:06:47;5.53;;;5.13;;
14688;SDS011;7432;48.728;9.154;2023-04-25T10:09:15;5.37;;;4.97;;
14688;SDS011;7432;48.728;9.154;2023-04-25T10:11:44;4.60;;;4.30;;
14688;SDS011;7432;48.728;9.154;2023-04-25T10:14:12;3.93;;;3.73;;
14688;SDS011;7432;48.728;9.154;2023-04-25T10:16:39;7.20;;;4.37;;
14688;SDS011;7432;48.728;9.154;2023-04-25T10:19:07;4.17;;;3.97;;
14688;SDS011;7432;48.728;9.154;2023-04-25T10:21:34;4.07;;;3.87;;
14688;SDS011;7432;48.728;9.154;2023-04-25T10:24:03;4.10;;;3.80;;
14688;SDS011;7432;48.728;9.154;2023-04-25T10:26:30;4.40;;;4.20;;
14688;SDS011;7432;48.728;9.154;2023-04-25T10:28:58;4.07;;;3.87;;
14688;SDS011;7432;48.728;9.154;2023-04-25T10:31:26;4.17;;;3.97;;
14688;SDS011;7432;48.728;9.154;2023-04-25T10:33:55;4.67;;;4.27;;
14688;SDS011;7432;48.728;9.154;2023-04-25T10:36:23;4.50;;;4.30;;
14688;SDS011;7432;48.728;9.154;2023-04-25T10:38:50;4.40;;;4.10;;
14688;SDS011;7432;48.728;9.154;2023-04-25T10:41:17;3.80;;;3.60;;
14688;SDS011;7432;48.728;9.154;2023-04-25T10:43:45;3.83;;;3.63;;
14688;SDS011;7432;48.728;9.154;2023-04-25T10:46:14;4.00;;;3.80;;
14688;SDS011;7432;48.728;9.154;2023-04-25T10:48:45;4.30;;;4.10;;
14688;SDS011;7432;48.728;9.154;2023-04-25T10:51:17;4.33;;;4.13;;
14688;SDS011;7432;48.728;9.154;2023-04-25T10:53:56;4.90;;;4.50;;
14688;SDS011;7432;48.728;9.154;2023-04-25T10:56:25;4.73;;;4.50;;
14688;SDS011;7432;48.728;9.154;2023-04-25T10:59:02;5.13;;;4.73;;
14688;SDS011;7432;48.728;9.154;2023-04-25T11:01:35;4.53;;;4.33;;
14688;SDS011;7432;48.728;9.154;2023-04-25T11:04:03;4.53;;;4.13;;
14688;SDS011;7432;48.728;9.154;2023-04-25T11:06:31;4.43;;;4.13;;
14688;SDS011;7432;48.728;9.154;2023-04-25T11:09:14;4.63;;;4.40;;
14688;SDS011;7432;48.728;9.154;2023-04-25T11:11:40;5.60;;;5.23;;
14688;SDS011;7432;48.728;9.154;2023-04-25T11:14:07;5.07;;;4.77;;
14688;SDS011;7432;48.728;9.154;2023-04-25T11:16:35;5.03;;;4.73;;
14688;SDS011;7432;48.728;9.154;2023-04-25T11:19:01;5.40;;;5.10;;
14688;SDS011;7432;48.728;9.154;2023-04-25T11:21:28;5.50;;;5.20;;
14688;SDS011;7432;48.728;9.154;2023-04-25T11:23:56;4.80;;;4.50;;
14688;SDS011;7432;48.728;9.154;2023-04-25T11:26:23;5.10;;;4.80;;
14688;SDS011;7432;48.728;9.154;2023-04-25T11:28:50;4.93;;;4.63;;
14688;SDS011;7432;48.728;9.154;2023-04-25T11:31:18;4.73;;;4.43;;
14688;SDS011;7432;48.728;9.154;2023-04-25T11:33:47;5.27;;;4.97;;
14688;SDS011;7432;48.728;9.154;2023-04-25T11:36:14;5.27;;;4.97;;
14688;SDS011;7432;48.728;9.154;2023-04-25T11:38:40;4.60;;;4.30;;
14688;SDS011;7432;48.728;9.154;2023-04-25T11:41:07;6.10;;;5.70;;
14688;SDS011;7432;48.728;9.154;2023-04-25T11:43:33;5.10;;;4.77;;
14688;SDS011;7432;48.728;9.154;2023-04-25T11:46:00;5.03;;;4.73;;
14688;SDS011;7432;48.728;9.154;2023-04-25T11:48:26;4.27;;;3.97;;
14688;SDS011;7432;48.728;9.154;2023-04-25T11:50:54;4.30;;;4.00;;
14688;SDS011;7432;48.728;9.154;2023-04-25T11:53:21;4.97;;;4.67;;
14688;SDS011;7432;48.728;9.154;2023-04-25T11:55:49;5.03;;;4.73;;
14688;SDS011;7432;48.728;9.154;2023-04-25T11:58:16;4.53;;;4.23;;
14688;SDS011;7432;48.728;9.154;2023-04-25T12:00:42;4.10;;;3.90;;
14688;SDS011;7432;48.728;9.154;2023-04-25T12:03:09;5.20;;;4.90;;
14688;SDS011;7432;48.728;9.154;2023-04-25T12:05:35;5.57;;;5.17;;
14688;SDS011;7432;48.728;9.154;2023-04-25T12:08:10;5.90;;;5.50;;
14688;SDS011;7432;48.728;9.154;2023-04-25T12:10:38;5.87;;;5.47;;
14688;SDS011;7432;48.728;9.154;2023-04-25T12:13:17;6.03;;;5.63;;
14688;SDS011;7432;48.728;9.154;2023-04-25T12:15:45;6.20;;;5.80;;
14688;SDS011;7432;48.728;9.154;2023-04-25T12:18:11;5.73;;;5.33;;
14688;SDS011;7432;48.728;9.154;2023-04-25T12:20:38;6.40;;;6.00;;
14688;SDS011;7432;48.728;9.154;2023-04-25T12:23:05;6.40;;;6.00;;
14688;SDS011;7432;48.728;9.154;2023-04-25T12:25:34;7.33;;;6.73;;
14688;SDS011;7432;48.728;9.154;2023-04-25T12:28:11;7.50;;;7.00;;
14688;SDS011;7432;48.728;9.154;2023-04-25T12:30:58;6.70;;;6.20;;
14688;SDS011;7432;48.728;9.154;2023-04-25T12:33:26;6.90;;;6.37;;
14688;SDS011;7432;48.728;9.154;2023-04-25T12:35:53;7.10;;;6.60;;
14688;SDS011;7432;48.728;9.154;2023-04-25T12:38:20;7.40;;;6.70;;
14688;SDS011;7432;48.728;9.154;2023-04-25T12:40:49;7.80;;;7.10;;
14688;SDS011;7432;48.728;9.154;2023-04-25T12:43:15;7.63;;;7.00;;
14688;SDS011;7432;48.728;9.154;2023-04-25T12:45:41;7.97;;;7.33;;
14688;SDS011;7432;48.728;9.154;2023-04-25T12:48:08;8.13;;;7.03;;
14688;SDS011;7432;48.728;9.154;2023-04-25T12:50:35;7.63;;;7.03;;
14688;SDS011;7432;48.728;9.154;2023-04-25T12:53:01;7.00;;;6.40;;
14688;SDS011;7432;48.728;9.154;2023-04-25T12:55:27;7.50;;;6.90;;
14688;SDS011;7432;48.728;9.154;2023-04-25T12:57:55;7.20;;;6.60;;
14688;SDS011;7432;48.728;9.154;2023-04-25T13:00:22;7.03;;;6.43;;
14688;SDS011;7432;48.728;9.154;2023-04-25T13:02:49;7.70;;;7.10;;
14688;SDS011;7432;48.728;9.154;2023-04-25T13:05:16;7.87;;;7.37;;
14688;SDS011;7432;48.728;9.154;2023-04-25T13:07:42;7.97;;;7.43;;
14688;SDS011;7432;48.728;9.154;2023-04-25T13:10:08;8.00;;;7.40;;
14688;SDS011;7432;48.728;9.154;2023-04-25T13:12:35;7.77;;;7.07;;
14688;SDS011;7432;48.728;9.154;2023-04-25T13:15:03;7.33;;;6.73;;
14688;SDS011;7432;48.728;9.154;2023-04-25T13:17:30;7.47;;;6.97;;
14688;SDS011;7432;48.728;9.154;2023-04-25T13:19:57;8.33;;;7.67;;
14688;SDS011;7432;48.728;9.154;2023-04-25T13:22:23;7.57;;;7.07;;
14688;SDS011;7432;48.728;9.154;2023-04-25T13:24:49;7.87;;;7.17;;
14688;SDS011;7432;48.728;9.154;2023-04-25T13:27:16;8.30;;;7.70;;
14688;SDS011;7432;48.728;9.154;2023-04-25T13:29:42;7.87;;;7.30;;
14688;SDS011;7432;48.728;9.154;2023-04-25T13:32:10;8.17;;;7.50;;
14688;SDS011;7432;48.728;9.154;2023-04-25T13:34:36;7.90;;;7.30;;
14688;SDS011;7432;48.728;9.154;2023-04-25T13:37:02;8.37;;;7.67;;
14688;SDS011;7432;48.728;9.154;2023-04-25T13:39:29;8.10;;;7.50;;
14688;SDS011;7432;48.728;9.154;2023-04-25T13:41:55;8.30;;;7.67;;
14688;SDS011;7432;48.728;9.154;2023-04-25T13:44:22;9.23;;;8.50;;
14688;SDS011;7432;48.728;9.154;2023-04-25T13:46:48;9.10;;;8.33;;
14688;SDS011;7432;48.728;9.154;2023-04-25T13:49:16;9.93;;;8.60;;
14688;SDS011;7432;48.728;9.154;2023-04-25T13:51:42;9.73;;;8.83;;
14688;SDS011;7432;48.728;9.154;2023-04-25T13:54:09;9.10;;;8.30;;
14688;SDS011;7432;48.728;9.154;2023-04-25T13:56:35;9.93;;;9.13;;
14688;SDS011;7432;48.728;9.154;2023-04-25T13:59:01;9.67;;;8.77;;
14688;SDS011;7432;48.728;9.154;2023-04-25T14:01:28;9.63;;;8.80;;
14688;SDS011;7432;48.728;9.154;2023-04-25T14:03:56;10.37;;;9.47;;
14688;SDS011;7432;48.728;9.154;2023-04-25T14:06:23;9.93;;;9.07;;
14688;SDS011;7432;48.728;9.154;2023-04-25T14:08:51;10.20;;;9.40;;
14688;SDS011;7432;48.728;9.154;2023-04-25T14:11:17;9.87;;;9.10;;
14688;SDS011;7432;48.728;9.154;2023-04-25T14:13:44;9.40;;;8.70;;
14688;SDS011;7432;48.728;9.154;2023-04-25T14:16:10;9.30;;;8.47;;
14688;SDS011;7432;48.728;9.154;2023-04-25T14:18:36;10.43;;;9.53;;
14688;SDS011;7432;48.728;9.154;2023-04-25T14:21:03;8.70;;;8.00;;
14688;SDS011;7432;48.728;9.154;2023-04-25T14:23:31;9.67;;;8.83;;
14688;SDS011;7432;48.728;9.154;2023-04-25T14:25:57;9.70;;;8.90;;
14688;SDS011;7432;48.728;9.154;2023-04-25T14:28:24;9.43;;;8.73;;
14688;SDS011;7432;48.728;9.154;2023-04-25T14:30:50;8.47;;;7.67;;
14688;SDS011;7432;48.728;9.154;2023-04-25T14:33:16;9.33;;;8.53;;
14688;SDS011;7432;48.728;9.154;2023-04-25T14:35:43;8.83;;;8.07;;
14688;SDS011;7432;48.728;9.154;2023-04-25T14:38:09;9.20;;;8.50;;
14688;SDS011;7432;48.728;9.154;2023-04-25T14:40:37;8.10;;;7.47;;
14688;SDS011;7432;48.728;9.154;2023-04-25T14:43:04;9.40;;;8.07;;
14688;SDS011;7432;48.728;9.154;2023-04-25T14:45:30;7.53;;;7.03;;
14688;SDS011;7432;48.728;9.154;2023-04-25T14:47:57;7.80;;;7.20;;
14688;SDS011;7432;48.728;9.154;2023-04-25T14:50:23;8.13;;;7.47;;
14688;SDS011;7432;48.728;9.154;2023-04-25T14:52:50;7.57;;;6.97;;
14688;SDS011;7432;48.728;9.154;2023-04-25T14:55:17;8.10;;;7.40;;
14688;SDS011;7432;48.728;9.154;2023-04-25T14:57:45;8.27;;;7.50;;
14688;SDS011;7432;48.728;9.154;2023-04-25T15:00:12;7.47;;;6.93;;